Time;durP1;ratioP1;P1;durP2;ratioP2;P2;SDS_P1;SDS_P2;PMS_P1;PMS_P2;Temp;Humidity;BMP_temperature;BMP_pressure;BME280_temperature;BME280_humidity;BME280_pressure;Samples;Min_cycle;Max_cycle;Signal;HPM_P1;HPM_P2
2022/06/15 04:49:48;;;;;;;3.53;0.80;;;16.90;78.50;;;;;;5111031;27;20428;-78
2022/06/15 04:52:14;;;;;;;4.85;1.63;;;16.70;80.70;;;;;;5111115;28;20024;-78
2022/06/15 04:54:40;;;;;;;6.35;1.77;;;16.70;80.50;;;;;;5110866;28;20391;-75
2022/06/15 04:57:05;;;;;;;4.43;1.10;;;16.70;81.20;;;;;;5110795;28;20077;-76
2022/06/15 04:59:31;;;;;;;7.60;1.27;;;16.70;81.50;;;;;;5111053;28;20065;-73
2022/06/15 05:01:58;;;;;;;5.57;1.45;;;16.80;81.10;;;;;;5110850;28;20073;-72
2022/06/15 05:04:25;;;;;;;3.75;1.10;;;16.90;81.20;;;;;;5110619;28;20529;-73
2022/06/15 05:06:51;;;;;;;5.43;1.10;;;16.90;80.50;;;;;;5108803;28;20032;-73
2022/06/15 05:09:17;;;;;;;5.28;1.02;;;17.00;80.30;;;;;;5110511;28;20467;-73
2022/06/15 05:11:43;;;;;;;2.42;1.00;;;17.20;80.30;;;;;;5110247;28;20016;-73
2022/06/15 05:14:09;;;;;;;7.25;1.40;;;17.30;80.00;;;;;;5109772;28;20494;-73
2022/06/15 05:16:36;;;;;;;5.25;1.00;;;17.40;79.60;;;;;;5110783;28;20055;-73
2022/06/15 05:19:02;;;;;;;5.50;0.93;;;17.50;78.70;;;;;;5109356;28;20030;-73
2022/06/15 05:21:29;;;;;;;5.32;0.73;;;17.60;78.80;;;;;;5109422;28;20058;-74
2022/06/15 05:23:55;;;;;;;4.20;1.10;;;17.70;78.40;;;;;;5107278;28;20360;-74
2022/06/15 05:26:26;;;;;;;7.07;1.55;;;17.80;78.10;;;;;;5107674;28;20016;-74
2022/06/15 05:28:52;;;;;;;5.75;1.60;;;17.80;78.00;;;;;;5108305;28;20031;-73
2022/06/15 05:31:21;;;;;;;3.75;0.82;;;17.80;77.50;;;;;;5108200;28;20027;-73
2022/06/15 05:33:53;;;;;;;6.03;1.55;;;17.90;77.60;;;;;;5107964;28;20059;-73
2022/06/15 05:36:20;;;;;;;3.75;0.70;;;17.90;77.00;;;;;;5108018;28;20061;-73
2022/06/15 05:38:46;;;;;;;8.73;0.95;;;17.90;77.00;;;;;;5109159;28;20020;-73
2022/06/15 05:41:12;;;;;;;6.05;1.30;;;18.00;77.10;;;;;;5110217;28;20448;-73
2022/06/15 05:43:45;;;;;;;5.55;1.13;;;18.10;77.10;;;;;;5109952;28;20089;-73
2022/06/15 05:46:26;;;;;;;7.15;1.60;;;18.10;77.00;;;;;;5109997;28;20028;-73
2022/06/15 05:48:53;;;;;;;5.40;1.15;;;18.10;76.50;;;;;;5109819;28;20054;-73
2022/06/15 05:51:19;;;;;;;5.75;1.00;;;18.10;77.10;;;;;;5109798;28;20024;-73
2022/06/15 05:53:45;;;;;;;4.90;1.10;;;17.90;76.70;;;;;;5110183;28;20019;-74
2022/06/15 05:56:10;;;;;;;5.60;1.55;;;18.00;77.00;;;;;;5110113;28;20489;-74
2022/06/15 05:58:36;;;;;;;4.00;1.10;;;18.10;76.70;;;;;;5109495;28;20044;-73
2022/06/15 06:01:10;;;;;;;5.47;0.90;;;18.20;76.90;;;;;;5096810;28;20093;-73
2022/06/15 06:03:35;;;;;;;6.78;1.40;;;18.30;76.70;;;;;;5095998;28;20401;-74
2022/06/15 06:06:02;;;;;;;4.63;0.88;;;18.30;76.20;;;;;;5095960;28;20027;-73
2022/06/15 06:08:27;;;;;;;2.72;0.80;;;18.30;76.30;;;;;;5095906;28;20058;-73
2022/06/15 06:10:53;;;;;;;11.30;1.50;;;18.50;76.00;;;;;;5096136;28;20020;-73
2022/06/15 06:13:18;;;;;;;5.82;1.05;;;18.50;75.40;;;;;;5095684;28;20032;-73
2022/06/15 06:15:44;;;;;;;6.00;1.30;;;18.70;75.30;;;;;;5095475;28;20059;-74
2022/06/15 06:18:09;;;;;;;5.70;1.27;;;18.60;74.60;;;;;;5095516;28;20016;-74
2022/06/15 06:20:35;;;;;;;4.72;1.00;;;18.60;74.20;;;;;;5095831;28;20039;-74
2022/06/15 06:23:01;;;;;;;4.30;0.90;;;18.50;74.60;;;;;;5095574;28;20030;-74
2022/06/15 06:25:27;;;;;;;4.43;0.55;;;18.70;74.40;;;;;;5095665;28;20027;-74
2022/06/15 06:27:53;;;;;;;5.25;0.70;;;18.80;74.30;;;;;;5095656;28;20162;-74
2022/06/15 06:30:21;;;;;;;5.03;0.68;;;18.90;74.10;;;;;;5095465;28;20064;-74
2022/06/15 06:32:47;;;;;;;5.88;1.20;;;19.10;74.00;;;;;;5095739;28;20383;-74
2022/06/15 06:35:13;;;;;;;5.10;1.00;;;19.20;73.00;;;;;;5095328;28;20455;-74
2022/06/15 06:37:39;;;;;;;6.70;0.80;;;19.20;73.10;;;;;;5095402;28;20038;-74
2022/06/15 06:40:05;;;;;;;5.07;1.20;;;19.40;73.20;;;;;;5095461;28;20024;-74
2022/06/15 06:42:31;;;;;;;6.95;1.33;;;19.30;72.10;;;;;;5095414;28;20382;-74
2022/06/15 06:44:56;;;;;;;6.45;1.13;;;19.30;73.00;;;;;;5095273;28;20020;-75
2022/06/15 06:47:22;;;;;;;4.88;1.02;;;19.40;73.10;;;;;;5095058;28;20126;-74
2022/06/15 06:49:48;;;;;;;5.68;1.15;;;19.30;73.20;;;;;;5095371;28;20024;-74
2022/06/15 06:52:13;;;;;;;5.82;0.88;;;19.40;72.50;;;;;;5095498;28;20047;-75
2022/06/15 06:54:39;;;;;;;9.57;1.33;;;19.50;73.00;;;;;;5095102;28;20035;-74
2022/06/15 06:57:05;;;;;;;6.03;1.63;;;19.60;72.10;;;;;;5094922;28;20028;-74
2022/06/15 06:59:30;;;;;;;10.10;1.27;;;19.70;72.10;;;;;;5094882;28;20400;-75
2022/06/15 07:01:56;;;;;;;6.45;1.13;;;19.70;71.60;;;;;;5095185;28;20032;-75
2022/06/15 07:04:22;;;;;;;6.35;0.85;;;19.80;70.30;;;;;;5094896;28;20413;-74
2022/06/15 07:06:47;;;;;;;6.65;1.80;;;19.90;70.70;;;;;;5095094;28;20044;-73
2022/06/15 07:09:14;;;;;;;3.38;0.90;;;19.90;70.10;;;;;;5094814;28;20035;-74
2022/06/15 07:11:43;;;;;;;7.63;0.90;;;19.90;70.70;;;;;;5093662;28;20020;-74
2022/06/15 07:14:09;;;;;;;7.43;1.00;;;19.90;71.20;;;;;;5094784;28;20036;-73
2022/06/15 07:16:35;;;;;;;7.82;0.93;;;20.00;71.10;;;;;;5094403;28;20026;-73
2022/06/15 07:19:01;;;;;;;5.50;0.80;;;20.10;69.40;;;;;;5094860;28;20380;-74
2022/06/15 07:21:28;;;;;;;9.80;1.52;;;20.10;69.50;;;;;;5094310;28;20016;-74
2022/06/15 07:23:56;;;;;;;6.88;1.35;;;20.10;69.50;;;;;;5094221;28;20024;-74
2022/06/15 07:26:44;;;;;;;5.95;0.82;;;20.20;70.00;;;;;;5094315;28;20031;-74
2022/06/15 07:29:13;;;;;;;10.25;1.40;;;20.30;69.90;;;;;;5094113;28;20031;-74
2022/06/15 07:31:41;;;;;;;4.63;0.85;;;20.50;69.20;;;;;;5094827;28;20031;-74
2022/06/15 07:34:08;;;;;;;9.95;0.90;;;20.60;67.30;;;;;;5094245;28;20020;-74
2022/06/15 07:36:36;;;;;;;7.45;1.17;;;20.60;67.60;;;;;;5094077;28;20028;-74
2022/06/15 07:39:03;;;;;;;4.78;0.73;;;20.60;68.50;;;;;;5094387;28;20047;-74
2022/06/15 07:41:29;;;;;;;6.28;1.10;;;20.60;68.90;;;;;;5094109;28;20028;-74
2022/06/15 07:43:55;;;;;;;8.50;1.17;;;20.80;69.10;;;;;;5094041;28;20080;-74
2022/06/15 07:46:21;;;;;;;5.78;1.27;;;20.90;67.40;;;;;;5093963;28;20496;-75
2022/06/15 07:51:38;;;;;;;5.55;0.90;;;20.80;65.60;;;;;;5093683;28;20096;-75
2022/06/15 07:54:05;;;;;;;6.72;0.90;;;20.90;66.90;;;;;;5094076;28;20111;-74
2022/06/15 07:56:32;;;;;;;9.10;1.10;;;20.90;66.70;;;;;;5093576;28;20020;-74
2022/06/15 07:58:58;;;;;;;6.43;0.95;;;21.10;64.80;;;;;;5094189;28;20081;-74
2022/06/15 08:01:24;;;;;;;5.28;1.13;;;21.20;64.60;;;;;;5093774;28;20020;-74
2022/06/15 08:03:51;;;;;;;8.38;1.20;;;21.40;65.90;;;;;;5093382;28;20028;-74
2022/06/15 08:06:18;;;;;;;3.70;0.77;;;21.50;65.20;;;;;;5093901;28;20034;-74
2022/06/15 08:08:44;;;;;;;3.97;0.88;;;21.70;63.40;;;;;;5093196;28;20024;-74
2022/06/15 08:11:10;;;;;;;6.00;0.80;;;21.80;63.60;;;;;;5093750;28;20421;-74
2022/06/15 08:13:37;;;;;;;6.20;1.45;;;21.90;65.30;;;;;;5093591;28;20356;-74
2022/06/15 08:16:03;;;;;;;6.78;0.88;;;22.00;63.60;;;;;;5093403;28;20051;-74
2022/06/15 08:18:34;;;;;;;6.25;1.20;;;22.00;62.20;;;;;;5093117;28;20028;-74
2022/06/15 08:21:02;;;;;;;5.68;0.98;;;22.00;63.10;;;;;;5093780;28;20111;-74
2022/06/15 08:23:32;;;;;;;5.32;1.13;;;22.00;63.80;;;;;;5092960;28;20065;-74
2022/06/15 08:26:02;;;;;;;6.82;1.30;;;22.00;63.80;;;;;;5093489;28;20065;-74
2022/06/15 08:28:33;;;;;;;7.40;1.13;;;22.00;63.90;;;;;;5093387;28;20040;-75
2022/06/15 08:30:58;;;;;;;4.60;0.63;;;22.00;65.00;;;;;;5093328;28;20020;-75
2022/06/15 08:33:24;;;;;;;7.03;1.35;;;22.20;65.30;;;;;;5093052;28;20028;-74
2022/06/15 08:35:51;;;;;;;5.32;1.00;;;22.30;63.70;;;;;;5093179;28;20020;-75
2022/06/15 08:38:20;;;;;;;6.20;0.90;;;22.40;63.30;;;;;;5093290;28;20406;-74
2022/06/15 08:40:59;;;;;;;5.93;1.10;;;22.40;63.60;;;;;;5093238;28;20387;-75
2022/06/15 08:44:09;;;;;;;5.30;1.00;;;22.50;63.70;;;;;;5092739;28;20020;-74
2022/06/15 08:46:50;;;;;;;5.20;1.02;;;22.50;62.30;;;;;;5092484;28;20062;-74
2022/06/15 08:49:35;;;;;;;8.68;1.60;;;22.60;62.80;;;;;;5092872;28;20059;-75
2022/06/15 08:52:13;;;;;;;4.55;1.00;;;22.70;63.00;;;;;;5093062;28;20368;-74
2022/06/15 08:54:47;;;;;;;6.10;1.05;;;22.80;61.90;;;;;;5093438;28;20047;-74
2022/06/15 08:57:24;;;;;;;9.05;1.42;;;22.80;62.20;;;;;;5093152;28;20024;-74
2022/06/15 09:00:02;;;;;;;3.33;1.08;;;22.80;61.60;;;;;;5093212;28;20391;-74
2022/06/15 09:03:01;;;;;;;6.20;1.30;;;22.80;61.50;;;;;;5092956;28;20099;-74
2022/06/15 09:06:10;;;;;;;9.00;1.13;;;22.80;61.60;;;;;;5092129;28;20020;-74
2022/06/15 09:08:44;;;;;;;10.82;1.60;;;22.90;61.60;;;;;;5093000;28;20036;-75
2022/06/15 09:11:40;;;;;;;5.53;1.00;;;23.00;60.60;;;;;;5093097;28;20031;-75
2022/06/15 09:14:33;;;;;;;5.20;0.77;;;23.20;61.40;;;;;;5092718;28;20032;-75
2022/06/15 09:17:10;;;;;;;;;;;23.30;60.10;;;;;;5093428;28;20059;-75
2022/06/15 09:19:49;;;;;;;4.10;0.95;;;23.40;60.30;;;;;;5092638;28;19911;-75
2022/06/15 09:22:20;;;;;;;5.47;1.40;;;23.40;60.00;;;;;;5092428;28;20549;-75
2022/06/15 09:24:51;;;;;;;7.53;1.20;;;23.40;59.50;;;;;;5093062;28;20055;-75
2022/06/15 09:27:32;;;;;;;4.13;1.17;;;23.50;60.30;;;;;;5092744;28;20040;-75
2022/06/15 09:30:04;;;;;;;5.93;1.25;;;23.60;58.60;;;;;;5092682;28;20484;-75
2022/06/15 09:32:37;;;;;;;3.47;0.70;;;23.60;59.00;;;;;;5092935;28;20034;-75
2022/06/15 09:35:32;;;;;;;6.65;0.98;;;23.50;61.10;;;;;;5093746;28;20032;-75
2022/06/15 09:38:00;;;;;;;3.88;1.00;;;23.70;60.90;;;;;;5096893;28;20027;-75
2022/06/15 09:40:53;;;;;;;4.90;1.20;;;23.80;58.70;;;;;;5096689;28;20024;-75
2022/06/15 09:43:19;;;;;;;;;;;23.90;59.90;;;;;;5096849;28;20074;-75
2022/06/15 09:46:10;;;;;;;6.70;0.80;;;23.90;59.80;;;;;;5096437;28;19904;-75
2022/06/15 09:48:45;;;;;;;5.10;0.70;;;24.00;59.30;;;;;;5087235;28;20044;-75
2022/06/15 09:51:31;;;;;;;10.57;1.30;;;24.20;59.00;;;;;;5096481;28;20052;-74
2022/06/15 09:54:24;;;;;;;8.05;1.40;;;24.20;58.60;;;;;;5096279;28;20028;-74
2022/06/15 09:56:50;;;;;;;;;;;24.30;59.40;;;;;;5096644;28;20031;-74
2022/06/15 09:59:19;;;;;;;7.72;0.70;;;24.30;58.10;;;;;;5096440;28;19930;-74
2022/06/15 10:01:45;;;;;;;6.03;0.90;;;24.30;57.60;;;;;;5096114;28;20024;-75
2022/06/15 10:04:20;;;;;;;4.28;0.90;;;24.40;59.00;;;;;;5096093;28;20078;-74
2022/06/15 10:06:51;;;;;;;6.43;0.80;;;24.60;57.80;;;;;;5095912;28;20516;-75
2022/06/15 10:09:23;;;;;;;7.90;2.10;;;24.70;56.90;;;;;;5096249;28;20074;-75
2022/06/15 10:12:56;;;;;;;4.68;1.10;;;24.70;55.30;;;;;;5095428;28;20024;-74
2022/06/15 10:15:02;;;;;;;4.47;0.88;;;24.60;55.00;;;;;;5095757;28;20032;-74
2022/06/15 10:17:39;;;;;;;3.67;1.23;;;24.70;55.50;;;;;;5095445;28;20107;-75
2022/06/15 10:20:05;;;;;;;4.65;0.90;;;24.80;53.30;;;;;;5095540;28;20036;-74
2022/06/15 10:22:36;;;;;;;4.65;0.75;;;24.70;54.50;;;;;;5095354;28;20074;-75
2022/06/15 10:25:05;;;;;;;5.32;0.85;;;24.60;55.00;;;;;;5095916;28;20024;-74
2022/06/15 10:27:38;;;;;;;4.18;0.63;;;24.80;53.50;;;;;;5095065;28;20441;-74
2022/06/15 10:30:06;;;;;;;5.28;0.65;;;24.90;54.00;;;;;;5095151;28;20480;-75
2022/06/15 10:32:33;;;;;;;5.20;1.20;;;25.00;55.30;;;;;;5095391;28;20032;-75
2022/06/15 10:35:17;;;;;;;5.90;0.80;;;25.00;53.10;;;;;;5095086;28;20028;-75
2022/06/15 10:37:51;;;;;;;4.15;0.93;;;25.20;55.20;;;;;;5095132;28;20024;-75
2022/06/15 10:40:55;;;;;;;5.45;0.73;;;25.30;54.10;;;;;;5095212;28;20032;-75
2022/06/15 10:43:32;;;;;;;4.70;0.88;;;25.30;53.90;;;;;;5032772;28;20021;-75
2022/06/15 10:46:02;;;;;;;4.15;0.85;;;25.50;53.80;;;;;;5088507;28;20032;-75
2022/06/15 10:48:44;;;;;;;4.93;1.00;;;25.60;53.50;;;;;;5094655;28;20165;-74
2022/06/15 10:51:15;;;;;;;4.07;0.93;;;25.70;53.20;;;;;;5095021;28;20024;-74
2022/06/15 10:53:43;;;;;;;3.80;0.77;;;25.70;54.30;;;;;;5094769;28;20479;-75
2022/06/15 11:02:34;;;;;;;4.22;0.93;;;25.80;52.80;;;;;;5095024;28;20103;-74
2022/06/15 11:05:08;;;;;;;8.00;0.65;;;26.00;52.60;;;;;;5095182;28;20028;-75
2022/06/15 11:07:44;;;;;;;3.33;0.70;;;26.10;52.00;;;;;;5095017;28;20028;-74
2022/06/15 11:10:31;;;;;;;6.90;1.67;;;26.10;51.40;;;;;;5094743;28;20032;-74
2022/06/15 11:12:59;;;;;;;5.28;0.80;;;26.10;51.00;;;;;;5094586;28;20020;-75
2022/06/15 11:18:29;;;;;;;16.65;2.40;;;26.00;50.80;;;;;;5094885;28;20387;-75
2022/06/15 11:21:08;;;;;;;12.45;2.28;;;26.10;52.20;;;;;;5094787;28;20024;-75
2022/06/15 11:24:01;;;;;;;20.60;2.10;;;26.20;52.20;;;;;;5094157;28;20024;-75
2022/06/15 11:26:57;;;;;;;24.17;2.78;;;26.30;51.60;;;;;;5094781;28;20027;-75
2022/06/15 11:29:48;;;;;;;6.13;0.75;;;26.30;51.30;;;;;;5094490;28;20058;-75
2022/06/15 11:32:32;;;;;;;5.57;0.77;;;26.40;50.30;;;;;;5094273;28;20084;-75
2022/06/15 11:35:12;;;;;;;5.78;0.95;;;26.50;50.00;;;;;;5094509;28;20020;-75
2022/06/15 11:38:16;;;;;;;5.55;0.63;;;26.70;51.70;;;;;;5094154;28;20023;-76
2022/06/15 11:41:00;;;;;;;6.85;0.90;;;26.70;50.60;;;;;;5094553;28;20044;-75
2022/06/15 11:43:30;;;;;;;4.20;0.70;;;26.70;50.20;;;;;;5094435;28;20099;-75
2022/06/15 11:46:11;;;;;;;3.40;0.50;;;26.50;51.30;;;;;;5094183;28;20020;-75
2022/06/15 11:49:08;;;;;;;3.97;0.57;;;26.50;50.40;;;;;;5093728;28;20487;-75
2022/06/15 11:51:49;;;;;;;3.90;0.70;;;26.50;50.70;;;;;;5093956;28;20028;-75
2022/06/15 11:55:01;;;;;;;3.38;0.93;;;26.60;52.90;;;;;;5093749;28;20039;-75
2022/06/15 11:57:50;;;;;;;4.47;0.85;;;26.90;52.60;;;;;;5030572;28;20108;-75
2022/06/15 12:00:26;;;;;;;3.38;0.50;;;27.00;49.90;;;;;;5031197;28;20033;-75
2022/06/15 12:03:11;;;;;;;2.78;0.60;;;27.10;49.90;;;;;;5077890;28;20032;-75
2022/06/15 12:05:43;;;;;;;5.88;0.95;;;27.10;49.20;;;;;;5093530;28;20086;-75
2022/06/15 12:08:24;;;;;;;;;;;27.20;49.30;;;;;;5094185;28;20024;-75
2022/06/15 12:10:55;;;;;;;2.50;0.60;;;27.30;48.80;;;;;;5093673;28;20404;-75
2022/06/15 12:13:29;;;;;;;3.70;0.88;;;27.40;48.40;;;;;;5093911;28;20116;-75
2022/06/15 12:16:00;;;;;;;3.30;0.63;;;27.40;48.00;;;;;;5093340;28;20050;-75
2022/06/15 12:18:53;;;;;;;1.38;0.40;;;27.40;48.90;;;;;;5093235;28;20020;-75
2022/06/15 12:21:23;;;;;;;4.63;0.80;;;27.50;48.50;;;;;;5093390;28;20051;-75
2022/06/15 12:24:26;;;;;;;3.78;0.52;;;27.70;47.40;;;;;;5093486;28;20186;-75
2022/06/15 12:27:12;;;;;;;4.57;0.50;;;27.70;47.00;;;;;;5093668;28;20050;-75
2022/06/15 12:29:54;;;;;;;3.03;0.43;;;27.70;48.20;;;;;;5093091;28;20032;-75
2022/06/15 12:32:35;;;;;;;2.13;0.65;;;27.50;48.30;;;;;;5093730;28;20078;-75
2022/06/15 12:35:22;;;;;;;1.90;0.60;;;27.50;47.60;;;;;;5093251;28;20027;-75
2022/06/15 12:37:55;;;;;;;3.75;0.60;;;27.30;47.80;;;;;;5093279;28;20025;-75
2022/06/15 12:40:23;;;;;;;4.00;0.85;;;27.30;48.00;;;;;;5093104;28;20616;-75
2022/06/15 12:42:57;;;;;;;6.60;1.00;;;27.20;48.50;;;;;;5093066;28;20031;-75
2022/06/15 12:45:31;;;;;;;3.55;0.50;;;27.30;48.80;;;;;;5093125;28;20088;-75
2022/06/15 12:48:01;;;;;;;4.22;0.60;;;27.40;48.10;;;;;;5093283;28;20048;-76
2022/06/15 12:51:03;;;;;;;3.72;0.70;;;27.40;49.10;;;;;;5093101;28;20031;-76
2022/06/15 12:53:39;;;;;;;3.20;0.60;;;27.50;48.00;;;;;;5079717;28;20407;-76
2022/06/15 12:56:23;;;;;;;3.42;0.50;;;27.60;48.50;;;;;;5093265;28;20020;-76
2022/06/15 12:59:15;;;;;;;4.15;1.00;;;27.80;48.70;;;;;;5093279;28;20036;-76
2022/06/15 13:02:13;;;;;;;3.60;0.67;;;27.90;48.30;;;;;;5093008;28;20059;-76
2022/06/15 13:05:09;;;;;;;3.17;0.57;;;27.90;48.00;;;;;;5092804;28;20269;-76
2022/06/15 13:07:38;;;;;;;2.90;0.52;;;28.00;48.50;;;;;;5092920;28;20375;-76
2022/06/15 13:10:07;;;;;;;4.75;0.70;;;28.00;47.20;;;;;;5093876;28;20032;-76
2022/06/15 13:12:44;;;;;;;4.28;0.50;;;28.00;47.10;;;;;;5096904;28;20020;-76
2022/06/15 13:15:25;;;;;;;3.72;0.50;;;28.00;47.60;;;;;;5096906;28;20028;-76
2022/06/15 13:20:45;;;;;;;3.10;0.50;;;28.00;47.70;;;;;;5096329;28;20028;-74
2022/06/15 13:23:24;;;;;;;3.53;0.60;;;28.10;47.00;;;;;;5096780;28;20020;-75
2022/06/15 13:25:55;;;;;;;5.60;0.60;;;28.20;47.40;;;;;;5096757;28;20028;-75
2022/06/15 13:28:31;;;;;;;1.70;0.40;;;28.20;47.60;;;;;;5096363;28;20044;-75
2022/06/15 13:31:13;;;;;;;1.48;0.30;;;28.20;48.20;;;;;;5096787;28;20020;-75
2022/06/15 13:33:50;;;;;;;3.75;0.57;;;28.40;47.70;;;;;;5096203;28;20027;-75
2022/06/15 13:36:21;;;;;;;3.03;0.77;;;28.50;46.60;;;;;;5096334;28;20501;-75
2022/06/15 13:38:47;;;;;;;3.57;0.70;;;28.40;46.80;;;;;;5096766;28;20116;-75
2022/06/15 13:41:23;;;;;;;1.95;0.40;;;28.30;46.60;;;;;;5096344;28;20048;-75
2022/06/15 13:43:49;;;;;;;3.25;0.70;;;28.40;47.40;;;;;;5096736;28;20481;-74
2022/06/15 13:46:29;;;;;;;5.30;0.60;;;28.50;46.10;;;;;;5096205;28;20073;-74
2022/06/15 13:49:00;;;;;;;4.00;0.80;;;28.40;46.10;;;;;;5095882;28;20051;-74
2022/06/15 13:51:30;;;;;;;2.75;0.43;;;28.40;44.90;;;;;;5096559;28;20020;-74
2022/06/15 13:54:08;;;;;;;2.80;0.50;;;28.30;46.10;;;;;;5095918;28;20035;-74
2022/06/15 13:56:54;;;;;;;4.10;0.70;;;28.30;44.80;;;;;;5096118;28;20095;-75
2022/06/15 13:59:34;;;;;;;3.55;0.47;;;28.30;45.10;;;;;;5096068;28;20032;-75
2022/06/15 14:02:35;;;;;;;1.40;0.35;;;28.30;44.60;;;;;;5096000;28;20087;-75
2022/06/15 14:05:19;;;;;;;3.67;0.43;;;28.20;45.90;;;;;;5096328;28;20067;-75
2022/06/15 14:08:11;;;;;;;4.82;0.70;;;28.20;44.40;;;;;;5095663;28;20016;-75
2022/06/15 14:10:58;;;;;;;3.83;0.70;;;28.10;44.20;;;;;;5095957;28;20032;-76
2022/06/15 14:13:23;;;;;;;2.75;0.45;;;28.10;45.00;;;;;;5096071;28;20430;-76
2022/06/15 14:15:56;;;;;;;2.17;0.45;;;28.20;45.70;;;;;;5095910;28;20027;-76
2022/06/15 14:18:22;;;;;;;3.60;0.50;;;28.30;44.70;;;;;;5095732;28;20020;-76
2022/06/15 14:20:48;;;;;;;4.10;0.75;;;28.30;44.80;;;;;;5095461;28;20051;-76
2022/06/15 14:23:30;;;;;;;1.95;0.43;;;28.40;43.40;;;;;;5095873;28;20020;-76
2022/06/15 14:25:58;;;;;;;4.72;0.85;;;28.40;43.00;;;;;;5095618;28;20032;-76
2022/06/15 14:28:27;;;;;;;1.55;0.43;;;28.40;45.60;;;;;;5095150;28;20039;-76
2022/06/15 14:31:23;;;;;;;4.32;0.60;;;28.40;44.50;;;;;;5095521;28;20086;-76
2022/06/15 14:34:05;;;;;;;2.65;0.50;;;28.30;44.70;;;;;;5095594;28;20024;-76
2022/06/15 14:36:31;;;;;;;2.50;0.32;;;28.20;44.60;;;;;;5095534;28;20103;-76
2022/06/15 14:39:11;;;;;;;2.35;0.50;;;28.20;44.60;;;;;;5095421;28;20122;-76
2022/06/15 14:41:37;;;;;;;2.42;0.50;;;28.20;45.20;;;;;;5095022;28;20535;-75
2022/06/15 14:44:03;;;;;;;3.65;0.50;;;28.30;44.00;;;;;;5095630;28;20024;-76
2022/06/15 14:46:54;;;;;;;3.53;0.40;;;28.40;43.90;;;;;;5095279;28;20043;-76
2022/06/15 14:49:26;;;;;;;2.40;0.50;;;28.50;45.50;;;;;;5094895;28;20044;-76
2022/06/15 14:52:07;;;;;;;;;;;28.50;45.20;;;;;;5095414;28;20016;-76
2022/06/15 14:54:32;;;;;;;2.47;0.40;;;28.40;44.60;;;;;;5095072;28;19904;-75
2022/06/15 14:56:58;;;;;;;4.88;0.60;;;28.30;45.50;;;;;;5095160;28;20031;-75
2022/06/15 14:59:27;;;;;;;3.72;0.73;;;28.20;44.90;;;;;;5095217;28;20364;-75
2022/06/15 15:02:00;;;;;;;4.03;0.50;;;27.90;44.50;;;;;;5095289;28;20048;-75
2022/06/15 15:04:27;;;;;;;2.83;0.50;;;27.70;45.30;;;;;;5095304;28;20016;-74
2022/06/15 15:06:57;;;;;;;1.98;0.32;;;27.70;45.80;;;;;;5094853;28;20069;-74
2022/06/15 15:09:25;;;;;;;2.85;0.70;;;27.70;46.00;;;;;;5094651;28;20035;-75
2022/06/15 15:11:51;;;;;;;1.83;0.30;;;27.80;46.10;;;;;;5094998;28;20027;-74
2022/06/15 15:14:26;;;;;;;2.05;0.50;;;27.90;46.50;;;;;;5094873;28;20384;-75
2022/06/15 15:17:04;;;;;;;1.90;0.50;;;27.90;44.80;;;;;;5094561;28;20024;-74
2022/06/15 15:19:36;;;;;;;6.03;0.57;;;27.80;45.30;;;;;;5094612;28;20104;-75
2022/06/15 15:22:23;;;;;;;3.00;0.52;;;27.70;45.70;;;;;;5094770;28;20383;-74
2022/06/15 15:24:54;;;;;;;3.85;0.55;;;27.60;45.80;;;;;;5094586;28;20115;-75
2022/06/15 15:36:09;;;;;;;3.15;0.52;;;27.60;45.40;;;;;;5094405;28;20030;-75
2022/06/15 15:38:35;;;;;;;3.22;0.40;;;27.70;45.40;;;;;;5094420;28;20020;-76
2022/06/15 15:41:04;;;;;;;1.80;0.30;;;27.70;45.50;;;;;;5094636;28;20020;-75
2022/06/15 15:43:31;;;;;;;4.85;0.80;;;27.70;45.40;;;;;;5094268;28;20081;-75
2022/06/15 15:45:57;;;;;;;4.10;0.47;;;27.70;45.00;;;;;;5094264;28;20031;-75
2022/06/15 15:48:23;;;;;;;1.85;0.30;;;27.70;45.50;;;;;;5093806;28;20068;-75
2022/06/15 15:50:49;;;;;;;2.08;0.30;;;27.60;46.10;;;;;;5094124;28;20459;-75
2022/06/15 15:53:16;;;;;;;4.03;0.40;;;27.70;46.00;;;;;;5094018;28;20101;-74
2022/06/15 15:55:45;;;;;;;2.58;0.43;;;27.70;45.90;;;;;;5094021;28;20024;-75
2022/06/15 15:58:14;;;;;;;5.60;0.75;;;27.70;45.30;;;;;;5093895;28;20550;-75
2022/06/15 16:00:41;;;;;;;4.28;0.68;;;27.60;44.90;;;;;;5093823;28;20028;-75
2022/06/15 16:03:11;;;;;;;3.15;0.63;;;27.50;45.50;;;;;;5093657;28;20027;-75
2022/06/15 16:05:37;;;;;;;2.15;0.32;;;27.30;45.40;;;;;;5093967;28;20032;-75
2022/06/15 16:08:03;;;;;;;2.67;0.52;;;27.30;45.00;;;;;;5093772;28;20486;-75
2022/06/15 16:10:36;;;;;;;2.58;0.30;;;27.30;45.10;;;;;;5093878;28;20047;-75
2022/06/15 16:13:03;;;;;;;3.75;1.15;;;27.40;45.70;;;;;;5093761;28;20099;-75
2022/06/15 16:15:29;;;;;;;2.95;0.50;;;27.30;46.30;;;;;;5093377;28;20460;-75
2022/06/15 16:17:55;;;;;;;1.90;0.50;;;27.30;46.50;;;;;;5093523;28;20471;-75
2022/06/15 16:20:26;;;;;;;1.90;0.40;;;27.20;45.60;;;;;;5093845;28;20047;-75
2022/06/15 16:22:54;;;;;;;3.42;0.60;;;27.10;45.40;;;;;;5093717;28;20052;-75
2022/06/15 16:25:22;;;;;;;3.17;0.52;;;26.90;45.20;;;;;;5093619;28;20169;-75
2022/06/15 16:27:49;;;;;;;2.03;0.45;;;26.90;45.50;;;;;;5093395;28;20460;-75
2022/06/15 16:30:17;;;;;;;3.65;0.70;;;26.90;45.80;;;;;;5093270;28;20063;-75
2022/06/15 16:32:43;;;;;;;4.93;0.47;;;26.70;46.60;;;;;;5093665;28;20109;-75
2022/06/15 16:35:11;;;;;;;1.77;0.40;;;26.70;46.10;;;;;;5093341;28;20186;-76
2022/06/15 16:37:37;;;;;;;1.65;0.40;;;26.70;46.50;;;;;;5093688;28;20375;-75
2022/06/15 16:40:05;;;;;;;2.78;0.50;;;26.70;46.60;;;;;;5093017;28;20444;-75
2022/06/15 16:42:30;;;;;;;3.72;0.63;;;26.80;46.50;;;;;;5093211;28;20107;-75
2022/06/15 16:44:56;;;;;;;2.85;0.60;;;26.80;46.20;;;;;;5092857;28;20054;-75
2022/06/15 16:47:21;;;;;;;2.95;0.50;;;26.80;46.70;;;;;;5092127;28;20028;-75
2022/06/15 16:49:47;;;;;;;3.53;0.80;;;26.70;46.10;;;;;;5091414;28;20123;-75
2022/06/15 16:52:13;;;;;;;1.65;0.50;;;26.70;46.30;;;;;;5092124;28;20101;-74
2022/06/15 16:54:39;;;;;;;4.43;0.57;;;26.60;46.20;;;;;;5091706;28;20031;-77
2022/06/15 16:57:09;;;;;;;3.17;0.50;;;26.50;46.20;;;;;;5091565;28;20056;-76
2022/06/15 16:59:35;;;;;;;4.97;0.70;;;26.50;47.00;;;;;;5091915;28;20024;-75
2022/06/15 17:02:02;;;;;;;4.88;0.70;;;26.40;46.70;;;;;;5093238;28;20024;-76
2022/06/15 17:04:29;;;;;;;1.52;0.50;;;26.40;47.00;;;;;;5091746;28;20062;-76
2022/06/15 17:07:02;;;;;;;2.60;0.52;;;26.40;46.90;;;;;;5093409;28;20024;-76
2022/06/15 17:09:29;;;;;;;1.77;0.40;;;26.40;47.00;;;;;;5093051;28;20035;-76
2022/06/15 17:11:55;;;;;;;2.95;0.40;;;26.40;46.80;;;;;;5093303;28;20093;-76
2022/06/15 17:14:22;;;;;;;1.90;0.55;;;26.40;46.90;;;;;;5092808;28;20024;-75
2022/06/15 17:16:48;;;;;;;2.33;0.70;;;26.40;47.20;;;;;;5093136;28;20072;-75
2022/06/15 17:19:14;;;;;;;1.80;0.40;;;26.40;47.10;;;;;;5093141;28;20024;-75
2022/06/15 17:21:43;;;;;;;1.70;0.40;;;26.30;47.10;;;;;;5093139;28;20031;-75
2022/06/15 17:24:09;;;;;;;3.92;0.70;;;26.30;47.20;;;;;;5092965;28;20471;-75
2022/06/15 17:26:39;;;;;;;1.58;0.30;;;26.30;46.60;;;;;;5092792;28;20463;-75
2022/06/15 17:29:05;;;;;;;2.35;0.60;;;26.20;47.40;;;;;;5093023;28;20072;-75
2022/06/15 17:31:36;;;;;;;4.30;0.60;;;26.30;47.20;;;;;;5093017;28;20352;-75
2022/06/15 17:34:03;;;;;;;1.80;0.70;;;26.10;47.20;;;;;;5092879;28;20459;-75
2022/06/15 17:36:29;;;;;;;1.83;0.70;;;26.00;47.30;;;;;;5093095;28;20387;-75
2022/06/15 17:38:55;;;;;;;1.33;0.52;;;26.00;47.50;;;;;;5092492;28;20435;-75
2022/06/15 17:41:24;;;;;;;4.28;0.50;;;26.00;47.50;;;;;;5092846;28;20085;-75
2022/06/15 17:43:52;;;;;;;2.80;0.60;;;26.00;47.60;;;;;;5092771;28;20032;-75
2022/06/15 17:46:20;;;;;;;2.17;0.55;;;26.00;47.50;;;;;;5092853;28;20065;-75
2022/06/15 17:48:45;;;;;;;3.85;0.55;;;25.90;47.50;;;;;;5092454;28;20074;-75
2022/06/15 17:51:11;;;;;;;1.30;0.55;;;25.90;47.60;;;;;;5092396;28;20532;-75
2022/06/15 17:53:37;;;;;;;2.97;0.80;;;25.90;47.70;;;;;;5092656;28;20028;-75
2022/06/15 17:56:03;;;;;;;5.32;0.60;;;25.80;47.50;;;;;;5094105;28;20108;-75
2022/06/15 17:58:29;;;;;;;3.10;0.40;;;25.80;47.80;;;;;;5096191;28;20031;-76
2022/06/15 18:00:55;;;;;;;18.20;0.90;;;25.70;47.80;;;;;;5096390;28;20024;-75
2022/06/15 18:03:20;;;;;;;2.88;0.47;;;25.70;47.80;;;;;;5096157;28;20024;-76
2022/06/15 18:05:46;;;;;;;2.40;0.70;;;25.70;47.90;;;;;;5095841;28;20111;-76
2022/06/15 18:08:12;;;;;;;3.55;0.52;;;25.70;48.20;;;;;;5096131;28;20028;-76
2022/06/15 18:10:38;;;;;;;4.15;0.60;;;25.70;48.40;;;;;;5096131;28;20066;-76
2022/06/15 18:13:04;;;;;;;2.50;0.50;;;25.60;48.60;;;;;;5096199;28;20020;-75
2022/06/15 18:15:32;;;;;;;3.58;0.50;;;25.60;48.80;;;;;;5095937;28;20383;-76
2022/06/15 18:17:59;;;;;;;3.13;0.85;;;25.50;49.10;;;;;;5095869;28;20046;-76
2022/06/15 18:20:38;;;;;;;1.65;0.45;;;25.50;48.80;;;;;;5095672;28;20020;-76
2022/06/15 18:23:12;;;;;;;2.65;0.50;;;25.50;49.00;;;;;;5096131;28;20024;-76
2022/06/15 18:25:38;;;;;;;5.90;0.50;;;25.60;49.00;;;;;;5096047;28;20028;-76
2022/06/15 18:28:04;;;;;;;4.03;0.40;;;25.50;48.80;;;;;;5095713;28;20028;-75